sensor_id;sensor_type;location;lat;lon;timestamp;temperature;humidity
36384;DHT22;22418;51.210;6.976;2023-07-28T00:00:46;17.90;99.90
36384;DHT22;22418;51.210;6.976;2023-07-28T00:03:17;18.00;99.90
36384;DHT22;22418;51.210;6.976;2023-07-28T00:05:47;18.00;99.90
36384;DHT22;22418;51.210;6.976;2023-07-28T00:08:18;18.00;99.90
36384;DHT22;22418;51.210;6.976;2023-07-28T00:10:48;18.00;99.90
36384;DHT22;22418;51.210;6.976;2023-07-28T00:13:19;17.90;99.90
36384;DHT22;22418;51.210;6.976;2023-07-28T00:15:49;18.00;99.90
36384;DHT22;22418;51.210;6.976;2023-07-28T00:18:20;17.90;99.90
36384;DHT22;22418;51.210;6.976;2023-07-28T00:20:51;18.00;99.90
36384;DHT22;22418;51.210;6.976;2023-07-28T00:23:22;18.00;99.90
36384;DHT22;22418;51.210;6.976;2023-07-28T00:25:52;18.00;99.90
36384;DHT22;22418;51.210;6.976;2023-07-28T00:28:23;17.90;99.90
36384;DHT22;22418;51.210;6.976;2023-07-28T00:30:53;18.00;99.90
36384;DHT22;22418;51.210;6.976;2023-07-28T00:33:24;17.90;99.90
36384;DHT22;22418;51.210;6.976;2023-07-28T00:35:54;18.00;99.90
36384;DHT22;22418;51.210;6.976;2023-07-28T00:38:25;18.00;99.90
36384;DHT22;22418;51.210;6.976;2023-07-28T00:40:55;18.00;99.90
36384;DHT22;22418;51.210;6.976;2023-07-28T00:43:26;18.00;99.90
36384;DHT22;22418;51.210;6.976;2023-07-28T00:45:57;18.00;99.90
36384;DHT22;22418;51.210;6.976;2023-07-28T00:48:27;18.00;99.90
36384;DHT22;22418;51.210;6.976;2023-07-28T00:50:58;18.00;99.90
36384;DHT22;22418;51.210;6.976;2023-07-28T00:53:29;18.00;99.90
36384;DHT22;22418;51.210;6.976;2023-07-28T00:56:01;18.00;99.90
36384;DHT22;22418;51.210;6.976;2023-07-28T00:58:32;18.00;99.90
36384;DHT22;22418;51.210;6.976;2023-07-28T01:01:03;18.00;99.90
36384;DHT22;22418;51.210;6.976;2023-07-28T01:03:33;18.00;99.90
36384;DHT22;22418;51.210;6.976;2023-07-28T01:06:14;18.00;99.90
36384;DHT22;22418;51.210;6.976;2023-07-28T01:11:18;18.00;99.90
36384;DHT22;22418;51.210;6.976;2023-07-28T01:13:49;18.00;99.90
36384;DHT22;22418;51.210;6.976;2023-07-28T01:16:19;18.00;99.90
36384;DHT22;22418;51.210;6.976;2023-07-28T01:18:51;18.00;99.90
36384;DHT22;22418;51.210;6.976;2023-07-28T01:21:25;17.90;99.90
36384;DHT22;22418;51.210;6.976;2023-07-28T01:24:11;18.00;99.90
36384;DHT22;22418;51.210;6.976;2023-07-28T01:26:46;18.00;99.90
36384;DHT22;22418;51.210;6.976;2023-07-28T01:29:18;18.00;99.90
36384;DHT22;22418;51.210;6.976;2023-07-28T01:31:51;18.00;99.90
36384;DHT22;22418;51.210;6.976;2023-07-28T01:34:21;18.00;99.90
36384;DHT22;22418;51.210;6.976;2023-07-28T01:36:52;18.00;99.90
36384;DHT22;22418;51.210;6.976;2023-07-28T01:39:22;18.00;99.90
36384;DHT22;22418;51.210;6.976;2023-07-28T01:41:53;18.00;99.90
36384;DHT22;22418;51.210;6.976;2023-07-28T01:44:24;18.00;99.90
36384;DHT22;22418;51.210;6.976;2023-07-28T01:46:54;18.00;99.90
36384;DHT22;22418;51.210;6.976;2023-07-28T01:49:25;18.00;99.90
36384;DHT22;22418;51.210;6.976;2023-07-28T01:51:55;18.00;99.90
36384;DHT22;22418;51.210;6.976;2023-07-28T01:54:26;18.00;99.90
36384;DHT22;22418;51.210;6.976;2023-07-28T01:56:56;18.00;99.90
36384;DHT22;22418;51.210;6.976;2023-07-28T01:59:27;18.00;99.90
36384;DHT22;22418;51.210;6.976;2023-07-28T02:02:00;18.00;99.90
36384;DHT22;22418;51.210;6.976;2023-07-28T02:04:30;18.00;99.90
36384;DHT22;22418;51.210;6.976;2023-07-28T02:07:01;18.00;99.90
36384;DHT22;22418;51.210;6.976;2023-07-28T02:09:31;18.00;99.90
36384;DHT22;22418;51.210;6.976;2023-07-28T02:12:02;18.00;99.90
36384;DHT22;22418;51.210;6.976;2023-07-28T02:14:32;18.00;99.90
36384;DHT22;22418;51.210;6.976;2023-07-28T02:17:03;18.00;99.90
36384;DHT22;22418;51.210;6.976;2023-07-28T02:19:34;18.00;99.90
36384;DHT22;22418;51.210;6.976;2023-07-28T02:22:04;18.00;99.90
36384;DHT22;22418;51.210;6.976;2023-07-28T02:24:35;18.00;99.90
36384;DHT22;22418;51.210;6.976;2023-07-28T02:27:06;18.00;99.90
36384;DHT22;22418;51.210;6.976;2023-07-28T02:29:36;18.00;99.90
36384;DHT22;22418;51.210;6.976;2023-07-28T02:32:07;18.00;99.90
36384;DHT22;22418;51.210;6.976;2023-07-28T02:34:38;18.00;99.90
36384;DHT22;22418;51.210;6.976;2023-07-28T02:37:08;18.00;99.90
36384;DHT22;22418;51.210;6.976;2023-07-28T02:39:39;18.00;99.90
36384;DHT22;22418;51.210;6.976;2023-07-28T02:42:09;18.00;99.90
36384;DHT22;22418;51.210;6.976;2023-07-28T02:44:40;18.00;99.90
36384;DHT22;22418;51.210;6.976;2023-07-28T02:47:10;18.00;99.90
36384;DHT22;22418;51.210;6.976;2023-07-28T02:49:41;18.00;99.90
36384;DHT22;22418;51.210;6.976;2023-07-28T02:52:12;18.00;99.90
36384;DHT22;22418;51.210;6.976;2023-07-28T02:54:43;18.00;99.90
36384;DHT22;22418;51.210;6.976;2023-07-28T02:57:13;18.00;99.90
36384;DHT22;22418;51.210;6.976;2023-07-28T02:59:44;18.00;99.90
36384;DHT22;22418;51.210;6.976;2023-07-28T03:02:14;18.00;99.90
36384;DHT22;22418;51.210;6.976;2023-07-28T03:04:45;18.00;99.90
36384;DHT22;22418;51.210;6.976;2023-07-28T03:07:16;18.00;99.90
36384;DHT22;22418;51.210;6.976;2023-07-28T03:09:47;18.00;99.90
36384;DHT22;22418;51.210;6.976;2023-07-28T03:12:17;18.00;99.90
36384;DHT22;22418;51.210;6.976;2023-07-28T03:14:48;18.00;99.90
36384;DHT22;22418;51.210;6.976;2023-07-28T03:17:18;18.00;99.90
36384;DHT22;22418;51.210;6.976;2023-07-28T03:19:49;18.00;99.90
36384;DHT22;22418;51.210;6.976;2023-07-28T03:22:19;18.00;99.90
36384;DHT22;22418;51.210;6.976;2023-07-28T03:24:50;18.00;99.90
36384;DHT22;22418;51.210;6.976;2023-07-28T03:27:20;18.00;99.90
36384;DHT22;22418;51.210;6.976;2023-07-28T03:29:51;18.00;99.90
36384;DHT22;22418;51.210;6.976;2023-07-28T03:32:22;18.00;99.90
36384;DHT22;22418;51.210;6.976;2023-07-28T03:34:52;18.00;99.90
36384;DHT22;22418;51.210;6.976;2023-07-28T03:37:23;18.00;99.90
36384;DHT22;22418;51.210;6.976;2023-07-28T03:39:53;18.00;99.90
36384;DHT22;22418;51.210;6.976;2023-07-28T03:42:24;18.00;99.90
36384;DHT22;22418;51.210;6.976;2023-07-28T03:44:55;18.00;99.90
36384;DHT22;22418;51.210;6.976;2023-07-28T03:47:25;18.00;99.90
36384;DHT22;22418;51.210;6.976;2023-07-28T03:49:56;18.00;99.90
36384;DHT22;22418;51.210;6.976;2023-07-28T03:52:26;18.00;99.90
36384;DHT22;22418;51.210;6.976;2023-07-28T03:54:57;18.10;99.90
36384;DHT22;22418;51.210;6.976;2023-07-28T03:57:27;18.10;99.90
36384;DHT22;22418;51.210;6.976;2023-07-28T03:59:58;18.10;99.90
36384;DHT22;22418;51.210;6.976;2023-07-28T04:02:28;18.00;99.90
36384;DHT22;22418;51.210;6.976;2023-07-28T04:04:59;18.10;99.90
36384;DHT22;22418;51.210;6.976;2023-07-28T04:07:30;18.00;99.90
36384;DHT22;22418;51.210;6.976;2023-07-28T04:10:00;18.10;99.90
36384;DHT22;22418;51.210;6.976;2023-07-28T04:12:31;18.00;99.90
36384;DHT22;22418;51.210;6.976;2023-07-28T04:15:01;18.00;99.90
36384;DHT22;22418;51.210;6.976;2023-07-28T04:17:32;18.00;99.90
36384;DHT22;22418;51.210;6.976;2023-07-28T04:20:03;18.00;99.90
36384;DHT22;22418;51.210;6.976;2023-07-28T04:22:33;18.10;99.90
36384;DHT22;22418;51.210;6.976;2023-07-28T04:25:04;18.10;99.90
36384;DHT22;22418;51.210;6.976;2023-07-28T04:27:35;18.10;99.90
36384;DHT22;22418;51.210;6.976;2023-07-28T04:30:06;18.10;99.90
36384;DHT22;22418;51.210;6.976;2023-07-28T04:32:36;18.10;99.90
36384;DHT22;22418;51.210;6.976;2023-07-28T04:35:07;18.10;99.90
36384;DHT22;22418;51.210;6.976;2023-07-28T04:37:37;18.10;99.90
36384;DHT22;22418;51.210;6.976;2023-07-28T04:40:08;18.10;99.90
36384;DHT22;22418;51.210;6.976;2023-07-28T04:42:39;18.20;99.90
36384;DHT22;22418;51.210;6.976;2023-07-28T04:45:10;18.10;99.90
36384;DHT22;22418;51.210;6.976;2023-07-28T04:47:40;18.20;99.90
36384;DHT22;22418;51.210;6.976;2023-07-28T04:50:11;18.20;99.90
36384;DHT22;22418;51.210;6.976;2023-07-28T04:52:41;18.20;99.90
36384;DHT22;22418;51.210;6.976;2023-07-28T04:55:12;18.20;99.90
36384;DHT22;22418;51.210;6.976;2023-07-28T04:57:42;18.20;99.90
36384;DHT22;22418;51.210;6.976;2023-07-28T05:00:13;18.20;99.90
36384;DHT22;22418;51.210;6.976;2023-07-28T05:02:44;18.20;99.90
36384;DHT22;22418;51.210;6.976;2023-07-28T05:05:15;18.20;99.90
36384;DHT22;22418;51.210;6.976;2023-07-28T05:07:45;18.30;99.90
36384;DHT22;22418;51.210;6.976;2023-07-28T05:10:16;18.30;99.90
36384;DHT22;22418;51.210;6.976;2023-07-28T05:12:46;18.30;99.90
36384;DHT22;22418;51.210;6.976;2023-07-28T05:15:17;18.30;99.90
36384;DHT22;22418;51.210;6.976;2023-07-28T05:17:48;18.40;99.90
36384;DHT22;22418;51.210;6.976;2023-07-28T05:20:21;18.40;99.90
36384;DHT22;22418;51.210;6.976;2023-07-28T05:22:52;18.40;99.90
36384;DHT22;22418;51.210;6.976;2023-07-28T05:25:25;18.40;99.90
36384;DHT22;22418;51.210;6.976;2023-07-28T05:27:55;18.40;99.90
36384;DHT22;22418;51.210;6.976;2023-07-28T05:30:26;18.40;99.90
36384;DHT22;22418;51.210;6.976;2023-07-28T05:32:57;18.50;99.90
36384;DHT22;22418;51.210;6.976;2023-07-28T05:35:27;18.40;99.90
36384;DHT22;22418;51.210;6.976;2023-07-28T05:37:58;18.40;99.90
36384;DHT22;22418;51.210;6.976;2023-07-28T05:40:28;18.40;99.90
36384;DHT22;22418;51.210;6.976;2023-07-28T05:42:59;18.40;99.90
36384;DHT22;22418;51.210;6.976;2023-07-28T05:45:29;18.40;99.90
36384;DHT22;22418;51.210;6.976;2023-07-28T05:48:00;18.40;99.90
36384;DHT22;22418;51.210;6.976;2023-07-28T05:50:30;18.50;99.90
36384;DHT22;22418;51.210;6.976;2023-07-28T05:53:01;18.50;99.90
36384;DHT22;22418;51.210;6.976;2023-07-28T05:55:33;18.50;99.90
36384;DHT22;22418;51.210;6.976;2023-07-28T05:58:04;18.50;99.90
36384;DHT22;22418;51.210;6.976;2023-07-28T06:00:34;18.50;99.90
36384;DHT22;22418;51.210;6.976;2023-07-28T06:03:05;18.50;99.90
36384;DHT22;22418;51.210;6.976;2023-07-28T06:05:35;18.50;99.90
36384;DHT22;22418;51.210;6.976;2023-07-28T06:08:06;18.50;99.90
36384;DHT22;22418;51.210;6.976;2023-07-28T06:10:37;18.50;99.90
36384;DHT22;22418;51.210;6.976;2023-07-28T06:13:08;18.50;99.90
36384;DHT22;22418;51.210;6.976;2023-07-28T06:15:39;18.50;99.90
36384;DHT22;22418;51.210;6.976;2023-07-28T06:18:10;18.50;99.90
36384;DHT22;22418;51.210;6.976;2023-07-28T06:20:44;18.50;99.90
36384;DHT22;22418;51.210;6.976;2023-07-28T06:23:14;18.50;99.90
36384;DHT22;22418;51.210;6.976;2023-07-28T06:25:45;18.50;99.90
36384;DHT22;22418;51.210;6.976;2023-07-28T06:28:16;18.50;99.90
36384;DHT22;22418;51.210;6.976;2023-07-28T06:30:47;18.50;99.90
36384;DHT22;22418;51.210;6.976;2023-07-28T06:33:17;18.60;99.90
36384;DHT22;22418;51.210;6.976;2023-07-28T06:35:48;18.60;99.90
36384;DHT22;22418;51.210;6.976;2023-07-28T06:38:18;18.60;99.90
36384;DHT22;22418;51.210;6.976;2023-07-28T06:40:49;18.60;99.90
36384;DHT22;22418;51.210;6.976;2023-07-28T06:43:20;18.60;99.90
36384;DHT22;22418;51.210;6.976;2023-07-28T06:45:51;18.60;99.90
36384;DHT22;22418;51.210;6.976;2023-07-28T06:48:21;18.70;99.90
36384;DHT22;22418;51.210;6.976;2023-07-28T06:50:52;18.60;99.90
36384;DHT22;22418;51.210;6.976;2023-07-28T06:53:22;18.60;99.90
36384;DHT22;22418;51.210;6.976;2023-07-28T06:55:53;18.60;99.90
36384;DHT22;22418;51.210;6.976;2023-07-28T06:58:24;18.60;99.90
36384;DHT22;22418;51.210;6.976;2023-07-28T07:00:55;18.60;99.90
36384;DHT22;22418;51.210;6.976;2023-07-28T07:03:26;18.70;99.90
36384;DHT22;22418;51.210;6.976;2023-07-28T07:05:56;18.70;99.90
36384;DHT22;22418;51.210;6.976;2023-07-28T07:08:27;18.70;99.90
36384;DHT22;22418;51.210;6.976;2023-07-28T07:10:58;18.80;99.90
36384;DHT22;22418;51.210;6.976;2023-07-28T07:13:28;18.80;99.90
36384;DHT22;22418;51.210;6.976;2023-07-28T07:15:59;18.90;99.90
36384;DHT22;22418;51.210;6.976;2023-07-28T07:18:29;18.90;99.90
36384;DHT22;22418;51.210;6.976;2023-07-28T07:21:03;19.00;99.90
36384;DHT22;22418;51.210;6.976;2023-07-28T07:23:34;19.00;99.90
36384;DHT22;22418;51.210;6.976;2023-07-28T07:26:04;19.00;99.90
36384;DHT22;22418;51.210;6.976;2023-07-28T07:28:35;19.00;99.90
36384;DHT22;22418;51.210;6.976;2023-07-28T07:31:15;19.00;99.90
36384;DHT22;22418;51.210;6.976;2023-07-28T07:33:45;19.10;99.90
36384;DHT22;22418;51.210;6.976;2023-07-28T07:36:18;19.10;99.90
36384;DHT22;22418;51.210;6.976;2023-07-28T07:38:48;19.20;99.90
36384;DHT22;22418;51.210;6.976;2023-07-28T07:41:21;19.20;99.90
36384;DHT22;22418;51.210;6.976;2023-07-28T07:43:53;19.30;99.90
36384;DHT22;22418;51.210;6.976;2023-07-28T07:46:24;19.30;99.90
36384;DHT22;22418;51.210;6.976;2023-07-28T07:48:55;19.30;99.90
36384;DHT22;22418;51.210;6.976;2023-07-28T07:51:25;19.30;99.90
36384;DHT22;22418;51.210;6.976;2023-07-28T07:53:56;19.20;99.90
36384;DHT22;22418;51.210;6.976;2023-07-28T07:56:27;19.20;99.90
36384;DHT22;22418;51.210;6.976;2023-07-28T07:58:58;19.30;99.90
36384;DHT22;22418;51.210;6.976;2023-07-28T08:01:28;19.30;99.90
36384;DHT22;22418;51.210;6.976;2023-07-28T08:03:59;19.30;99.90
36384;DHT22;22418;51.210;6.976;2023-07-28T08:06:29;19.40;99.90
36384;DHT22;22418;51.210;6.976;2023-07-28T08:09:00;19.40;99.90
36384;DHT22;22418;51.210;6.976;2023-07-28T08:11:31;19.50;99.90
36384;DHT22;22418;51.210;6.976;2023-07-28T08:14:02;19.40;99.90
36384;DHT22;22418;51.210;6.976;2023-07-28T08:16:32;19.40;99.90
36384;DHT22;22418;51.210;6.976;2023-07-28T08:19:03;19.40;99.90
36384;DHT22;22418;51.210;6.976;2023-07-28T08:21:33;19.40;99.90
36384;DHT22;22418;51.210;6.976;2023-07-28T08:24:06;19.40;99.90
36384;DHT22;22418;51.210;6.976;2023-07-28T08:26:37;19.40;99.90
36384;DHT22;22418;51.210;6.976;2023-07-28T08:29:08;19.40;99.90
36384;DHT22;22418;51.210;6.976;2023-07-28T08:31:39;19.40;99.90
36384;DHT22;22418;51.210;6.976;2023-07-28T08:34:09;19.50;99.90
36384;DHT22;22418;51.210;6.976;2023-07-28T08:36:40;19.50;99.90
36384;DHT22;22418;51.210;6.976;2023-07-28T08:39:11;19.50;99.90
36384;DHT22;22418;51.210;6.976;2023-07-28T08:41:42;19.60;99.90
36384;DHT22;22418;51.210;6.976;2023-07-28T08:44:13;19.50;99.90
36384;DHT22;22418;51.210;6.976;2023-07-28T08:46:44;19.60;99.90
36384;DHT22;22418;51.210;6.976;2023-07-28T08:49:14;19.60;99.90
36384;DHT22;22418;51.210;6.976;2023-07-28T08:51:52;19.60;99.90
36384;DHT22;22418;51.210;6.976;2023-07-28T08:54:22;19.60;99.90
36384;DHT22;22418;51.210;6.976;2023-07-28T08:56:53;19.60;99.90
36384;DHT22;22418;51.210;6.976;2023-07-28T08:59:25;19.60;99.90
36384;DHT22;22418;51.210;6.976;2023-07-28T09:01:57;19.70;99.90
36384;DHT22;22418;51.210;6.976;2023-07-28T09:04:30;19.70;99.90
36384;DHT22;22418;51.210;6.976;2023-07-28T09:07:04;19.80;99.90
36384;DHT22;22418;51.210;6.976;2023-07-28T09:09:35;19.90;99.90
36384;DHT22;22418;51.210;6.976;2023-07-28T09:12:07;19.90;99.90
36384;DHT22;22418;51.210;6.976;2023-07-28T09:14:41;20.00;99.90
36384;DHT22;22418;51.210;6.976;2023-07-28T09:17:12;20.00;99.90
36384;DHT22;22418;51.210;6.976;2023-07-28T09:19:50;20.10;99.90
36384;DHT22;22418;51.210;6.976;2023-07-28T09:22:22;20.20;99.90
36384;DHT22;22418;51.210;6.976;2023-07-28T09:24:53;20.30;99.90
36384;DHT22;22418;51.210;6.976;2023-07-28T09:27:25;20.20;99.90
36384;DHT22;22418;51.210;6.976;2023-07-28T09:29:56;20.30;99.90
36384;DHT22;22418;51.210;6.976;2023-07-28T09:32:29;20.40;99.90
36384;DHT22;22418;51.210;6.976;2023-07-28T09:35:11;20.50;99.90
36384;DHT22;22418;51.210;6.976;2023-07-28T09:37:44;20.60;99.90
36384;DHT22;22418;51.210;6.976;2023-07-28T09:40:20;20.80;99.90
36384;DHT22;22418;51.210;6.976;2023-07-28T09:42:51;20.80;99.90
36384;DHT22;22418;51.210;6.976;2023-07-28T09:45:24;20.90;99.90
36384;DHT22;22418;51.210;6.976;2023-07-28T09:47:57;20.80;99.90
36384;DHT22;22418;51.210;6.976;2023-07-28T09:50:32;20.80;99.90
36384;DHT22;22418;51.210;6.976;2023-07-28T09:53:03;20.70;99.90
36384;DHT22;22418;51.210;6.976;2023-07-28T09:55:34;20.70;99.90
36384;DHT22;22418;51.210;6.976;2023-07-28T09:58:05;20.80;99.90
36384;DHT22;22418;51.210;6.976;2023-07-28T10:00:40;20.90;99.90
36384;DHT22;22418;51.210;6.976;2023-07-28T10:03:11;20.90;99.90
36384;DHT22;22418;51.210;6.976;2023-07-28T10:05:42;20.90;99.90
36384;DHT22;22418;51.210;6.976;2023-07-28T10:08:13;21.00;99.90
36384;DHT22;22418;51.210;6.976;2023-07-28T10:10:44;21.20;99.90
36384;DHT22;22418;51.210;6.976;2023-07-28T10:13:22;21.40;99.90
36384;DHT22;22418;51.210;6.976;2023-07-28T10:15:53;21.50;99.90
36384;DHT22;22418;51.210;6.976;2023-07-28T10:18:25;21.60;99.90
36384;DHT22;22418;51.210;6.976;2023-07-28T10:21:04;21.70;99.90
36384;DHT22;22418;51.210;6.976;2023-07-28T10:23:35;21.90;99.90
36384;DHT22;22418;51.210;6.976;2023-07-28T10:26:09;22.10;99.90
36384;DHT22;22418;51.210;6.976;2023-07-28T10:28:40;22.30;99.90
36384;DHT22;22418;51.210;6.976;2023-07-28T10:31:13;22.40;99.90
36384;DHT22;22418;51.210;6.976;2023-07-28T10:33:46;22.30;99.90
36384;DHT22;22418;51.210;6.976;2023-07-28T10:41:38;22.30;99.90
36384;DHT22;22418;51.210;6.976;2023-07-28T10:44:09;22.10;99.90
36384;DHT22;22418;51.210;6.976;2023-07-28T10:46:40;22.00;99.90
36384;DHT22;22418;51.210;6.976;2023-07-28T10:49:10;21.70;99.90
36384;DHT22;22418;51.210;6.976;2023-07-28T10:51:41;21.60;99.90
36384;DHT22;22418;51.210;6.976;2023-07-28T10:54:12;21.50;99.90
36384;DHT22;22418;51.210;6.976;2023-07-28T10:56:47;21.30;99.90
36384;DHT22;22418;51.210;6.976;2023-07-28T10:59:18;21.20;99.90
36384;DHT22;22418;51.210;6.976;2023-07-28T11:01:49;21.20;99.90
36384;DHT22;22418;51.210;6.976;2023-07-28T11:04:20;21.30;99.90
36384;DHT22;22418;51.210;6.976;2023-07-28T11:06:51;21.50;99.90
36384;DHT22;22418;51.210;6.976;2023-07-28T11:09:23;21.50;99.90
36384;DHT22;22418;51.210;6.976;2023-07-28T11:11:56;21.60;99.90
36384;DHT22;22418;51.210;6.976;2023-07-28T11:14:27;21.70;99.90
36384;DHT22;22418;51.210;6.976;2023-07-28T11:16:59;21.80;99.90
36384;DHT22;22418;51.210;6.976;2023-07-28T11:19:29;22.00;99.90
36384;DHT22;22418;51.210;6.976;2023-07-28T11:22:00;22.30;99.90
36384;DHT22;22418;51.210;6.976;2023-07-28T11:24:30;22.50;99.90
36384;DHT22;22418;51.210;6.976;2023-07-28T11:27:01;22.60;99.90
36384;DHT22;22418;51.210;6.976;2023-07-28T11:29:32;22.60;99.90
36384;DHT22;22418;51.210;6.976;2023-07-28T11:32:03;22.70;99.90
36384;DHT22;22418;51.210;6.976;2023-07-28T11:34:35;22.70;99.90
36384;DHT22;22418;51.210;6.976;2023-07-28T11:37:06;22.80;99.90
36384;DHT22;22418;51.210;6.976;2023-07-28T11:39:39;22.80;99.90
36384;DHT22;22418;51.210;6.976;2023-07-28T11:42:10;22.70;99.90
36384;DHT22;22418;51.210;6.976;2023-07-28T11:44:41;22.50;99.90
36384;DHT22;22418;51.210;6.976;2023-07-28T11:47:17;22.50;99.90
36384;DHT22;22418;51.210;6.976;2023-07-28T11:49:49;22.70;99.90
36384;DHT22;22418;51.210;6.976;2023-07-28T11:52:21;22.80;99.90
36384;DHT22;22418;51.210;6.976;2023-07-28T11:54:52;23.00;99.90
36384;DHT22;22418;51.210;6.976;2023-07-28T11:57:24;23.10;99.90
36384;DHT22;22418;51.210;6.976;2023-07-28T11:59:55;23.10;99.90
36384;DHT22;22418;51.210;6.976;2023-07-28T12:02:27;23.10;99.90
36384;DHT22;22418;51.210;6.976;2023-07-28T12:04:58;23.00;99.90
36384;DHT22;22418;51.210;6.976;2023-07-28T12:07:33;23.00;99.90
36384;DHT22;22418;51.210;6.976;2023-07-28T12:10:04;23.00;99.90
36384;DHT22;22418;51.210;6.976;2023-07-28T12:12:44;23.10;99.90
36384;DHT22;22418;51.210;6.976;2023-07-28T12:15:23;23.20;99.90
36384;DHT22;22418;51.210;6.976;2023-07-28T12:18:14;23.20;99.90
36384;DHT22;22418;51.210;6.976;2023-07-28T12:20:46;23.20;99.90
36384;DHT22;22418;51.210;6.976;2023-07-28T12:23:20;23.10;99.90
36384;DHT22;22418;51.210;6.976;2023-07-28T12:25:50;23.00;99.90
36384;DHT22;22418;51.210;6.976;2023-07-28T12:28:21;22.80;99.90
36384;DHT22;22418;51.210;6.976;2023-07-28T12:30:52;22.80;99.90
36384;DHT22;22418;51.210;6.976;2023-07-28T12:33:23;22.80;99.90
36384;DHT22;22418;51.210;6.976;2023-07-28T12:35:55;22.80;99.90
36384;DHT22;22418;51.210;6.976;2023-07-28T12:38:26;22.80;99.90
36384;DHT22;22418;51.210;6.976;2023-07-28T12:40:57;22.90;99.90
36384;DHT22;22418;51.210;6.976;2023-07-28T12:43:27;23.00;99.90
36384;DHT22;22418;51.210;6.976;2023-07-28T12:45:59;22.90;99.90
36384;DHT22;22418;51.210;6.976;2023-07-28T12:48:30;22.70;99.90
36384;DHT22;22418;51.210;6.976;2023-07-28T12:51:00;22.50;99.90
36384;DHT22;22418;51.210;6.976;2023-07-28T12:53:31;22.30;99.90
36384;DHT22;22418;51.210;6.976;2023-07-28T12:56:01;22.10;99.90
36384;DHT22;22418;51.210;6.976;2023-07-28T12:58:32;22.10;99.90
36384;DHT22;22418;51.210;6.976;2023-07-28T13:01:03;22.10;99.90
36384;DHT22;22418;51.210;6.976;2023-07-28T13:03:34;22.20;99.90
36384;DHT22;22418;51.210;6.976;2023-07-28T13:06:05;22.50;99.90
36384;DHT22;22418;51.210;6.976;2023-07-28T13:08:35;22.70;99.90
36384;DHT22;22418;51.210;6.976;2023-07-28T13:11:06;23.00;99.90
36384;DHT22;22418;51.210;6.976;2023-07-28T13:13:37;23.30;99.90
36384;DHT22;22418;51.210;6.976;2023-07-28T13:16:07;23.30;99.90
36384;DHT22;22418;51.210;6.976;2023-07-28T13:18:38;23.30;99.90
36384;DHT22;22418;51.210;6.976;2023-07-28T13:21:10;23.20;99.90
36384;DHT22;22418;51.210;6.976;2023-07-28T13:23:43;23.00;99.90
36384;DHT22;22418;51.210;6.976;2023-07-28T13:26:14;22.80;99.90
36384;DHT22;22418;51.210;6.976;2023-07-28T13:28:44;22.60;99.90
36384;DHT22;22418;51.210;6.976;2023-07-28T13:31:18;22.30;99.90
36384;DHT22;22418;51.210;6.976;2023-07-28T13:33:48;22.10;99.90
36384;DHT22;22418;51.210;6.976;2023-07-28T13:36:19;22.00;99.90
36384;DHT22;22418;51.210;6.976;2023-07-28T13:38:49;22.00;99.90
36384;DHT22;22418;51.210;6.976;2023-07-28T13:41:20;22.00;99.90
36384;DHT22;22418;51.210;6.976;2023-07-28T13:43:50;22.00;99.90
36384;DHT22;22418;51.210;6.976;2023-07-28T13:46:21;21.90;99.90
36384;DHT22;22418;51.210;6.976;2023-07-28T13:48:52;21.90;99.90
36384;DHT22;22418;51.210;6.976;2023-07-28T13:51:22;21.90;99.90
36384;DHT22;22418;51.210;6.976;2023-07-28T13:53:53;21.80;99.90
36384;DHT22;22418;51.210;6.976;2023-07-28T13:56:24;21.80;99.90
36384;DHT22;22418;51.210;6.976;2023-07-28T13:58:54;21.70;99.90
36384;DHT22;22418;51.210;6.976;2023-07-28T14:01:25;21.70;99.90
36384;DHT22;22418;51.210;6.976;2023-07-28T14:03:55;21.60;99.90
36384;DHT22;22418;51.210;6.976;2023-07-28T14:06:26;21.60;99.90
36384;DHT22;22418;51.210;6.976;2023-07-28T14:08:56;21.70;99.90
36384;DHT22;22418;51.210;6.976;2023-07-28T14:11:27;21.60;99.90
36384;DHT22;22418;51.210;6.976;2023-07-28T14:13:57;21.70;99.90
36384;DHT22;22418;51.210;6.976;2023-07-28T14:16:28;21.80;99.90
36384;DHT22;22418;51.210;6.976;2023-07-28T14:18:59;21.70;99.90
36384;DHT22;22418;51.210;6.976;2023-07-28T14:21:29;21.70;99.90
36384;DHT22;22418;51.210;6.976;2023-07-28T14:24:00;21.80;99.90
36384;DHT22;22418;51.210;6.976;2023-07-28T14:26:30;21.80;99.90
36384;DHT22;22418;51.210;6.976;2023-07-28T14:29:01;21.90;99.90
36384;DHT22;22418;51.210;6.976;2023-07-28T14:31:32;21.90;99.90
36384;DHT22;22418;51.210;6.976;2023-07-28T14:34:02;22.10;99.90
36384;DHT22;22418;51.210;6.976;2023-07-28T14:36:33;22.10;99.90
36384;DHT22;22418;51.210;6.976;2023-07-28T14:39:05;22.10;99.90
36384;DHT22;22418;51.210;6.976;2023-07-28T14:41:36;22.20;99.90
36384;DHT22;22418;51.210;6.976;2023-07-28T14:44:07;22.20;99.90
36384;DHT22;22418;51.210;6.976;2023-07-28T14:46:38;22.20;99.90
36384;DHT22;22418;51.210;6.976;2023-07-28T14:49:08;22.20;99.90
36384;DHT22;22418;51.210;6.976;2023-07-28T14:51:39;22.20;99.90
36384;DHT22;22418;51.210;6.976;2023-07-28T14:54:09;22.30;99.90
36384;DHT22;22418;51.210;6.976;2023-07-28T14:56:40;22.20;99.90
36384;DHT22;22418;51.210;6.976;2023-07-28T14:59:10;22.20;99.90
36384;DHT22;22418;51.210;6.976;2023-07-28T15:01:41;22.20;99.90
36384;DHT22;22418;51.210;6.976;2023-07-28T15:04:11;22.30;99.90
36384;DHT22;22418;51.210;6.976;2023-07-28T15:06:44;22.40;99.90
36384;DHT22;22418;51.210;6.976;2023-07-28T15:09:14;22.40;99.90
36384;DHT22;22418;51.210;6.976;2023-07-28T15:11:49;22.40;99.90
36384;DHT22;22418;51.210;6.976;2023-07-28T15:14:19;22.50;99.90
36384;DHT22;22418;51.210;6.976;2023-07-28T15:16:50;22.60;99.90
36384;DHT22;22418;51.210;6.976;2023-07-28T15:19:20;22.70;99.90
36384;DHT22;22418;51.210;6.976;2023-07-28T15:21:51;22.70;99.90
36384;DHT22;22418;51.210;6.976;2023-07-28T15:24:21;22.60;99.90
36384;DHT22;22418;51.210;6.976;2023-07-28T15:26:52;22.60;99.90
36384;DHT22;22418;51.210;6.976;2023-07-28T15:29:23;22.60;99.90
36384;DHT22;22418;51.210;6.976;2023-07-28T15:31:53;22.60;99.90
36384;DHT22;22418;51.210;6.976;2023-07-28T15:34:25;22.60;99.90
36384;DHT22;22418;51.210;6.976;2023-07-28T15:36:55;22.60;99.90
36384;DHT22;22418;51.210;6.976;2023-07-28T15:39:28;22.60;99.90
36384;DHT22;22418;51.210;6.976;2023-07-28T15:41:58;22.60;99.90
36384;DHT22;22418;51.210;6.976;2023-07-28T15:44:29;22.50;99.90
36384;DHT22;22418;51.210;6.976;2023-07-28T15:46:59;22.50;99.90
36384;DHT22;22418;51.210;6.976;2023-07-28T15:49:30;22.50;99.90
36384;DHT22;22418;51.210;6.976;2023-07-28T15:52:01;22.50;99.90
36384;DHT22;22418;51.210;6.976;2023-07-28T15:54:31;22.30;99.90
36384;DHT22;22418;51.210;6.976;2023-07-28T15:57:04;22.20;99.90
36384;DHT22;22418;51.210;6.976;2023-07-28T15:59:35;22.00;99.90
36384;DHT22;22418;51.210;6.976;2023-07-28T16:02:06;21.90;99.90